Time;durP1;ratioP1;P1;durP2;ratioP2;P2;SDS_P1;SDS_P2;PMS_P1;PMS_P2;Temp;Humidity;BMP_temperature;BMP_pressure;BME280_temperature;BME280_humidity;BME280_pressure;Samples;Min_cycle;Max_cycle;Signal;HPM_P1;HPM_P2
2023/07/19 00:00:49;;;;;;;2.13;0.90;;;;;;;15.65;100.00;97378.97;5067527;28;20036;-38
2023/07/19 00:03:15;;;;;;;4.15;1.10;;;;;;;15.63;100.00;97374.84;5068758;28;20523;-38
2023/07/19 00:05:41;;;;;;;4.05;1.00;;;;;;;15.61;100.00;97377.59;5068978;28;20530;-38
2023/07/19 00:08:07;;;;;;;3.13;1.20;;;;;;;15.63;100.00;97369.59;5055646;28;20033;-38
2023/07/19 00:10:32;;;;;;;1.90;1.30;;;;;;;15.61;100.00;97361.03;5066282;28;20036;-43
2023/07/19 00:12:58;;;;;;;2.65;0.98;;;;;;;15.60;100.00;97359.38;5067563;28;20476;-37
2023/07/19 00:15:24;;;;;;;6.03;1.02;;;;;;;15.58;100.00;97358.72;5054935;28;20037;-37
2023/07/19 00:17:50;;;;;;;1.63;0.60;;;;;;;15.56;100.00;97356.22;5060320;28;20040;-38
2023/07/19 00:20:16;;;;;;;3.53;0.98;;;;;;;15.56;100.00;97348.38;5047311;28;20101;-37
2023/07/19 00:22:42;;;;;;;2.35;0.82;;;;;;;15.57;100.00;97342.19;5050605;28;20445;-37
2023/07/19 00:25:08;;;;;;;1.60;1.17;;;;;;;15.52;100.00;97333.91;5048758;28;20406;-37
2023/07/19 00:27:34;;;;;;;2.38;1.00;;;;;;;15.56;100.00;97326.59;5063193;28;20037;-38
2023/07/19 00:30:00;;;;;;;3.33;1.70;;;;;;;15.57;100.00;97320.41;5067156;28;20106;-37
2023/07/19 00:32:26;;;;;;;3.65;1.15;;;;;;;15.62;100.00;97332.09;5068655;28;20059;-37
2023/07/19 00:34:52;;;;;;;2.00;1.25;;;;;;;15.64;100.00;97322.31;5067814;28;20041;-37
2023/07/19 00:37:18;;;;;;;4.30;1.00;;;;;;;15.42;100.00;97298.22;5067186;28;20090;-37
2023/07/19 00:39:44;;;;;;;3.63;1.20;;;;;;;15.54;100.00;97311.06;5050192;28;20042;-37
2023/07/19 00:42:10;;;;;;;1.60;0.82;;;;;;;15.55;100.00;97311.84;5065787;28;20166;-37
2023/07/19 00:44:35;;;;;;;1.58;0.82;;;;;;;15.55;100.00;97311.84;5060942;28;20143;-37
2023/07/19 00:47:02;;;;;;;3.60;1.10;;;;;;;15.51;100.00;97306.06;5056637;28;20041;-37
2023/07/19 00:49:32;;;;;;;1.25;1.00;;;;;;;15.50;100.00;97306.19;5060047;28;20594;-37
2023/07/19 00:51:59;;;;;;;4.03;1.00;;;;;;;15.43;100.00;97312.97;5068062;28;20050;-38
2023/07/19 00:54:25;;;;;;;1.45;1.00;;;;;;;15.19;100.00;97280.19;5066662;28;20071;-37
2023/07/19 00:56:50;;;;;;;2.38;1.02;;;;;;;15.16;100.00;97292.75;5049866;28;20044;-37
2023/07/19 00:59:16;;;;;;;2.38;1.10;;;;;;;14.91;100.00;97269.78;5054506;28;20134;-37
2023/07/19 01:01:45;;;;;;;4.03;1.20;;;;;;;15.09;100.00;97299.50;5063129;28;20045;-37
2023/07/19 01:04:12;;;;;;;3.40;1.25;;;;;;;15.04;100.00;97291.22;5061406;28;20094;-37
2023/07/19 01:06:38;;;;;;;3.42;1.10;;;;;;;15.01;100.00;97291.53;5084801;28;20047;-37
2023/07/19 01:09:04;;;;;;;2.25;1.10;;;;;;;14.98;100.00;97294.41;5067911;28;20037;-38
2023/07/19 01:11:30;;;;;;;2.72;0.95;;;;;;;14.91;100.00;97303.78;5068507;28;20567;-38
2023/07/19 01:13:57;;;;;;;1.48;1.27;;;;;;;14.87;100.00;97292.75;5045797;28;20075;-37
2023/07/19 01:16:24;;;;;;;2.33;1.40;;;;;;;14.88;100.00;97291.78;5067865;28;20044;-37
2023/07/19 01:18:50;;;;;;;1.70;1.40;;;;;;;14.55;100.00;97245.94;5067299;28;20078;-36
2023/07/19 01:21:16;;;;;;;1.77;1.58;;;;;;;14.86;100.00;97293.72;5066882;28;20115;-36
2023/07/19 01:23:41;;;;;;;4.07;2.00;;;;;;;14.98;100.00;97297.00;5081782;28;20048;-36
2023/07/19 01:26:07;;;;;;;3.92;2.30;;;;;;;15.12;100.00;97300.06;5049109;28;20036;-37
2023/07/19 01:28:33;;;;;;;2.92;1.98;;;;;;;15.13;100.00;97285.16;5046699;28;20155;-37
2023/07/19 01:31:03;;;;;;;3.08;2.00;;;;;;;15.31;100.00;97291.34;5064392;28;20122;-37
2023/07/19 01:33:29;;;;;;;3.83;1.77;;;;;;;15.27;100.00;97266.44;5047106;28;20671;-37
2023/07/19 01:35:55;;;;;;;4.07;1.60;;;;;;;15.46;100.00;97294.34;5048787;28;20048;-38
2023/07/19 01:38:20;;;;;;;2.15;1.60;;;;;;;15.35;100.00;97270.94;5047311;28;20036;-37
2023/07/19 01:40:46;;;;;;;3.08;1.52;;;;;;;15.48;100.00;97267.06;5064919;28;20455;-38
2023/07/19 01:43:12;;;;;;;2.95;1.25;;;;;;;15.63;100.00;97289.25;5066973;28;20070;-37
2023/07/19 01:45:38;;;;;;;2.83;1.10;;;;;;;15.61;100.00;97293.78;5050507;28;20086;-37
2023/07/19 01:48:05;;;;;;;1.00;0.70;;;;;;;15.63;100.00;97288.41;5064273;28;20052;-37
2023/07/19 01:50:30;;;;;;;0.98;0.80;;;;;;;15.65;100.00;97297.75;5064105;28;20410;-37
2023/07/19 01:52:56;;;;;;;0.90;0.70;;;;;;;15.44;100.00;97277.97;5067461;28;20135;-38
2023/07/19 01:55:22;;;;;;;3.28;0.77;;;;;;;15.56;100.00;97300.41;5066202;28;20118;-37
2023/07/19 01:57:48;;;;;;;1.38;0.40;;;;;;;15.55;100.00;97311.84;5067244;28;20507;-37
2023/07/19 02:00:14;;;;;;;0.98;0.40;;;;;;;15.50;100.00;97314.84;5066296;28;20044;-37
2023/07/19 02:02:45;;;;;;;0.85;0.60;;;;;;;15.21;100.00;97261.75;5047245;28;20063;-37
2023/07/19 02:05:11;;;;;;;1.15;0.60;;;;;;;15.49;100.00;97320.25;5060172;28;20040;-38
2023/07/19 02:07:37;;;;;;;1.92;0.80;;;;;;;15.49;100.00;97321.06;5066437;28;20512;-38
2023/07/19 02:10:03;;;;;;;0.60;0.50;;;;;;;15.45;100.00;97319.69;5050011;28;20048;-38
2023/07/19 02:12:29;;;;;;;0.63;0.50;;;;;;;15.49;100.00;97315.03;5066221;28;20059;-37
2023/07/19 02:14:55;;;;;;;1.55;0.52;;;;;;;15.51;100.00;97319.16;5048481;28;20503;-37
2023/07/19 02:17:22;;;;;;;1.02;0.40;;;;;;;15.45;100.00;97317.06;5067166;28;20055;-37
2023/07/19 02:19:47;;;;;;;4.72;0.68;;;;;;;15.32;100.00;97311.31;5043263;28;20590;-38
2023/07/19 02:22:17;;;;;;;1.35;0.70;;;;;;;15.27;100.00;97305.69;5047483;28;20045;-39
2023/07/19 02:24:43;;;;;;;2.57;0.70;;;;;;;15.39;100.00;97330.72;5080565;28;20044;-38
2023/07/19 02:27:09;;;;;;;4.78;0.60;;;;;;;15.32;100.00;97302.66;5067207;28;20531;-37
2023/07/19 02:29:35;;;;;;;4.85;0.70;;;;;;;15.49;100.00;97330.72;5054676;28;20049;-37
2023/07/19 02:32:04;;;;;;;0.82;0.65;;;;;;;15.49;100.00;97333.34;5067017;28;20048;-37
2023/07/19 02:34:30;;;;;;;2.88;0.70;;;;;;;15.41;100.00;97352.38;5043453;28;20051;-38
2023/07/19 02:36:57;;;;;;;3.40;0.70;;;;;;;15.34;100.00;97348.66;5068406;28;20043;-38
2023/07/19 02:39:26;;;;;;;1.92;0.70;;;;;;;15.24;100.00;97353.06;5065649;28;20040;-37
2023/07/19 02:41:52;;;;;;;3.95;1.00;;;;;;;15.15;100.00;97364.38;5067571;28;20044;-38
2023/07/19 02:44:21;;;;;;;2.58;0.93;;;;;;;15.06;100.00;97367.81;5041393;28;20045;-37
2023/07/19 02:46:47;;;;;;;2.13;0.80;;;;;;;14.94;100.00;97374.13;5047093;28;20686;-38
2023/07/19 02:49:12;;;;;;;0.85;0.60;;;;;;;14.58;100.00;97324.13;5075591;28;20036;-38
2023/07/19 02:51:39;;;;;;;2.63;1.00;;;;;;;14.83;100.00;97381.16;5065628;28;20036;-37
2023/07/19 02:54:04;;;;;;;1.80;0.57;;;;;;;14.88;100.00;97377.28;5060400;28;20037;-37
2023/07/19 02:56:30;;;;;;;2.03;1.10;;;;;;;14.82;100.00;97366.41;5027129;28;20051;-37
2023/07/19 02:58:56;;;;;;;1.30;0.82;;;;;;;14.79;100.00;97369.31;5042301;28;20611;-37
2023/07/19 03:01:22;;;;;;;3.13;1.40;;;;;;;14.75;100.00;97370.53;5045483;28;20048;-38
2023/07/19 03:03:49;;;;;;;2.92;1.05;;;;;;;14.59;100.00;97364.16;5049489;28;20044;-37
2023/07/19 03:06:15;;;;;;;3.28;1.20;;;;;;;14.71;100.00;97392.66;5048886;28;20497;-37
2023/07/19 03:08:43;;;;;;;4.80;1.15;;;;;;;14.78;100.00;97401.66;5049548;28;20047;-37
2023/07/19 03:11:09;;;;;;;3.42;1.00;;;;;;;14.83;100.00;97389.00;5048712;28;20063;-38
2023/07/19 03:13:35;;;;;;;3.50;1.60;;;;;;;14.46;100.00;97350.50;5050810;28;20033;-37
2023/07/19 03:16:02;;;;;;;3.92;1.48;;;;;;;14.87;100.00;97414.88;5031797;28;20068;-37
2023/07/19 03:18:28;;;;;;;2.03;0.70;;;;;;;14.83;100.00;97419.53;5050381;28;20068;-37
2023/07/19 03:21:01;;;;;;;2.85;0.88;;;;;;;14.83;100.00;97435.25;5041724;28;20111;-37
2023/07/19 03:23:30;;;;;;;4.63;0.98;;;;;;;14.83;100.00;97451.75;5035691;28;20042;-37
2023/07/19 03:25:59;;;;;;;3.55;1.10;;;;;;;14.91;100.00;97479.06;5047565;28;20045;-37
2023/07/19 03:28:27;;;;;;;4.30;1.67;;;;;;;14.60;100.00;97441.66;5049326;28;20037;-37
2023/07/19 03:30:54;;;;;;;5.47;2.10;;;;;;;14.96;100.00;97500.41;5025310;28;20044;-37
2023/07/19 03:33:21;;;;;;;2.47;1.17;;;;;;;14.93;100.00;97511.13;5051412;28;20127;-37
2023/07/19 03:35:47;;;;;;;4.15;1.10;;;;;;;14.93;100.00;97505.91;5048533;28;20041;-37
2023/07/19 03:38:13;;;;;;;3.28;1.23;;;;;;;14.91;100.00;97506.06;5034879;28;20037;-38
2023/07/19 03:40:39;;;;;;;5.18;1.52;;;;;;;14.97;100.00;97518.56;5048300;28;20063;-42
2023/07/19 03:43:05;;;;;;;6.18;1.40;;;;;;;15.01;100.00;97511.31;5050907;28;20037;-37
2023/07/19 03:45:31;;;;;;;6.82;1.73;;;;;;;15.02;100.00;97511.16;5034046;28;20496;-37
2023/07/19 03:47:57;;;;;;;3.13;1.48;;;;;;;14.96;100.00;97519.56;5042354;28;20463;-37
2023/07/19 03:50:25;;;;;;;5.28;1.60;;;;;;;14.88;100.00;97508.09;5033261;28;20041;-37
2023/07/19 03:52:50;;;;;;;8.77;2.70;;;;;;;14.90;100.00;97521.88;5049505;28;20080;-38
2023/07/19 03:55:19;;;;;;;5.40;1.98;;;;;;;14.77;100.00;97499.38;5031016;28;20053;-37
2023/07/19 03:57:46;;;;;;;5.05;2.42;;;;;;;14.87;100.00;97528.19;5059799;28;20058;-37
2023/07/19 04:00:13;;;;;;;5.85;3.50;;;;;;;14.75;100.00;97516.19;5059040;28;20136;-38
2023/07/19 04:02:48;;;;;;;7.80;2.90;;;;;;;14.71;100.00;97509.53;5065918;28;20044;-37
2023/07/19 04:05:16;;;;;;;4.97;2.53;;;;;;;14.65;100.00;97521.38;5058039;28;20124;-37
2023/07/19 04:07:42;;;;;;;7.70;3.97;;;;;;;14.67;100.00;97521.22;5050151;28;20044;-37
2023/07/19 04:10:08;;;;;;;7.78;4.18;;;;;;;14.69;100.00;97507.06;5062547;28;20044;-38
2023/07/19 04:12:34;;;;;;;5.57;3.38;;;;;;;14.77;100.00;97530.75;5068744;28;20484;-38
2023/07/19 04:15:00;;;;;;;6.68;3.75;;;;;;;14.79;100.00;97535.88;5068349;28;20040;-38
2023/07/19 04:17:27;;;;;;;5.25;3.45;;;;;;;14.73;100.00;97533.78;5069181;28;20067;-38
2023/07/19 04:19:54;;;;;;;7.53;3.80;;;;;;;14.77;100.00;97540.41;5063769;28;20048;-38
2023/07/19 04:22:20;;;;;;;6.15;3.47;;;;;;;14.69;100.00;97546.31;5061584;28;20516;-38
2023/07/19 04:24:46;;;;;;;5.45;3.70;;;;;;;14.61;100.00;97547.88;5034537;28;20044;-36
2023/07/19 04:27:12;;;;;;;4.68;2.85;;;;;;;14.58;100.00;97553.38;5050638;28;20036;-39
2023/07/19 04:29:38;;;;;;;7.03;3.67;;;;;;;14.55;100.00;97551.84;5067881;28;20068;-38
2023/07/19 04:32:04;;;;;;;5.05;3.13;;;;;;;14.63;100.00;97551.22;5063081;28;20109;-37
2023/07/19 04:34:30;;;;;;;7.47;4.03;;;;;;;14.52;100.00;97539.03;5066904;28;20107;-37
2023/07/19 04:36:56;;;;;;;9.32;4.30;;;;;;;14.53;100.00;97558.19;5058601;28;20056;-38
2023/07/19 04:39:23;;;;;;;6.57;3.63;;;;;;;14.44;100.00;97530.19;5067786;28;20428;-38
2023/07/19 04:41:49;;;;;;;8.32;4.40;;;;;;;14.59;100.00;97562.91;5065760;28;20040;-38
2023/07/19 04:44:17;;;;;;;9.23;3.70;;;;;;;14.64;100.00;97560.72;5068599;28;20126;-38
2023/07/19 04:46:43;;;;;;;8.95;3.95;;;;;;;14.65;100.00;97571.06;5068660;28;20534;-37
2023/07/19 04:49:09;;;;;;;7.88;3.38;;;;;;;14.54;100.00;97572.91;5047628;28;20044;-38
2023/07/19 04:51:35;;;;;;;6.63;3.72;;;;;;;14.16;100.00;97523.81;5065569;28;20052;-37
2023/07/19 04:54:01;;;;;;;10.82;3.90;;;;;;;14.34;100.00;97577.97;5068270;28;20036;-38
2023/07/19 04:56:30;;;;;;;7.97;2.95;;;;;;;14.40;100.00;97567.03;5061166;28;20136;-38
2023/07/19 04:58:55;;;;;;;7.75;4.15;;;;;;;14.33;100.00;97575.50;5068553;28;20136;-38
2023/07/19 05:01:21;;;;;;;5.85;2.97;;;;;;;14.27;100.00;97578.63;5058346;28;20040;-38
2023/07/19 05:03:47;;;;;;;4.30;2.90;;;;;;;14.14;100.00;97552.66;5055922;28;20052;-37
2023/07/19 05:06:14;;;;;;;6.40;3.80;;;;;;;14.34;100.00;97588.44;5061875;28;20041;-37
2023/07/19 05:08:41;;;;;;;6.05;3.42;;;;;;;14.33;100.00;97584.19;5067465;28;20131;-38
2023/07/19 05:11:07;;;;;;;6.80;2.47;;;;;;;14.22;100.00;97552.88;5063220;28;20050;-38
2023/07/19 05:13:33;;;;;;;5.88;4.07;;;;;;;14.29;100.00;97592.38;5066537;28;20040;-37
2023/07/19 05:16:00;;;;;;;6.85;2.90;;;;;;;14.25;100.00;97597.03;5064691;28;20133;-38
2023/07/19 05:18:26;;;;;;;3.38;2.15;;;;;;;14.21;100.00;97600.03;5060402;28;20068;-38
2023/07/19 05:20:53;;;;;;;5.07;2.53;;;;;;;14.33;100.00;97601.66;5066643;28;20932;-37
2023/07/19 05:23:20;;;;;;;6.47;3.20;;;;;;;14.24;100.00;97594.53;5066826;28;20071;-38
2023/07/19 05:25:47;;;;;;;5.97;3.10;;;;;;;14.43;100.00;97614.81;5064169;28;20194;-37
2023/07/19 05:28:13;;;;;;;5.05;3.10;;;;;;;14.36;100.00;97625.78;5065694;28;20039;-37
2023/07/19 05:30:39;;;;;;;4.80;2.70;;;;;;;14.44;100.00;97640.84;5031220;28;20420;-37
2023/07/19 05:33:05;;;;;;;4.25;2.35;;;;;;;14.34;100.00;97645.94;5067715;28;20040;-37
2023/07/19 05:35:31;;;;;;;7.43;3.60;;;;;;;14.44;100.00;97647.84;5064099;28;20036;-37
2023/07/19 05:37:57;;;;;;;5.68;3.08;;;;;;;14.50;100.00;97663.03;5064964;28;20155;-46
2023/07/19 05:40:23;;;;;;;6.18;3.25;;;;;;;14.52;100.00;97667.16;5067512;28;20135;-37
2023/07/19 05:42:49;;;;;;;4.15;2.45;;;;;;;14.36;100.00;97664.97;5066196;28;20036;-37
2023/07/19 05:45:15;;;;;;;3.85;2.60;;;;;;;14.23;100.00;97668.69;5068601;28;20507;-37
2023/07/19 05:47:41;;;;;;;5.82;3.20;;;;;;;14.13;100.00;97683.47;5047855;28;20047;-37
2023/07/19 05:50:07;;;;;;;7.13;2.67;;;;;;;14.15;100.00;97687.59;5065690;28;20786;-37
2023/07/19 05:52:33;;;;;;;5.18;3.30;;;;;;;14.04;100.00;97700.69;5066732;28;20101;-37
2023/07/19 05:54:59;;;;;;;4.85;2.50;;;;;;;13.92;100.00;97692.03;5044668;28;20052;-38
2023/07/19 05:57:25;;;;;;;9.32;3.63;;;;;;;13.95;100.00;97707.47;5051455;28;20470;-37
2023/07/19 05:59:51;;;;;;;6.65;3.38;;;;;;;13.94;100.00;97700.59;5048797;28;20572;-37
2023/07/19 06:02:16;;;;;;;4.68;2.83;;;;;;;13.87;100.00;97703.84;5053740;28;20048;-37
2023/07/19 06:04:42;;;;;;;5.72;2.50;;;;;;;13.73;100.00;97702.28;5067221;28;20044;-37
2023/07/19 06:07:08;;;;;;;5.30;2.55;;;;;;;13.68;100.00;97708.81;5062467;28;20048;-37
2023/07/19 06:09:34;;;;;;;4.90;3.30;;;;;;;13.71;100.00;97706.78;5066633;28;20474;-37
2023/07/19 06:12:00;;;;;;;4.32;2.92;;;;;;;13.60;100.00;97719.03;5065779;28;20044;-37
2023/07/19 06:14:26;;;;;;;5.50;3.22;;;;;;;13.52;100.00;97710.03;5069033;28;20066;-37
2023/07/19 06:16:52;;;;;;;8.20;4.15;;;;;;;13.21;100.00;97676.81;5065177;28;20130;-38
2023/07/19 06:19:19;;;;;;;10.20;3.83;;;;;;;13.58;100.00;97722.59;5065667;28;20064;-36
2023/07/19 06:21:45;;;;;;;6.03;2.53;;;;;;;13.58;100.00;97727.81;5065677;28;20522;-37
2023/07/19 06:24:11;;;;;;;6.20;3.30;;;;;;;13.39;100.00;97706.72;5065193;28;20127;-37
2023/07/19 06:26:37;;;;;;;6.90;3.50;;;;;;;13.47;100.00;97729.59;5063355;28;20181;-38
2023/07/19 06:29:03;;;;;;;5.20;3.42;;;;;;;13.49;100.00;97748.59;5068311;28;20520;-37
2023/07/19 06:31:29;;;;;;;6.53;3.85;;;;;;;13.54;100.00;97743.84;5067149;28;20041;-37
2023/07/19 06:33:55;;;;;;;7.75;3.72;;;;;;;13.36;100.00;97717.38;5067857;28;20033;-37
2023/07/19 06:36:21;;;;;;;6.63;3.80;;;;;;;13.43;100.00;97742.06;5067333;28;20087;-37
2023/07/19 06:38:47;;;;;;;3.80;3.10;;;;;;;13.42;100.00;97756.06;5069382;28;20064;-38
2023/07/19 06:41:13;;;;;;;4.05;2.75;;;;;;;13.41;100.00;97762.22;5072863;28;20048;-37
2023/07/19 06:43:40;;;;;;;5.95;3.38;;;;;;;13.40;100.00;97762.31;5071371;28;20056;-37
2023/07/19 06:46:05;;;;;;;6.82;3.50;;;;;;;13.45;100.00;97760.22;5059004;28;20548;-37
2023/07/19 06:48:31;;;;;;;7.78;4.40;;;;;;;13.49;100.00;97767.69;5069589;28;20134;-37
2023/07/19 06:50:57;;;;;;;5.45;3.42;;;;;;;13.41;100.00;97753.56;5067838;28;20032;-36
2023/07/19 06:53:23;;;;;;;8.07;4.13;;;;;;;13.46;100.00;97767.91;5078937;28;20064;-36
2023/07/19 06:55:51;;;;;;;9.13;4.90;;;;;;;13.48;100.00;97767.81;5060075;28;20117;-37
2023/07/19 06:58:16;;;;;;;8.65;3.90;;;;;;;13.37;100.00;97762.56;5071242;28;20089;-37
2023/07/19 07:00:42;;;;;;;5.47;3.47;;;;;;;13.48;100.00;97776.47;5067448;28;20053;-37
2023/07/19 07:03:08;;;;;;;5.88;3.25;;;;;;;13.54;100.00;97777.78;5066049;28;20048;-37
2023/07/19 07:05:34;;;;;;;8.45;4.25;;;;;;;13.55;100.00;97780.25;5060359;28;20040;-37
2023/07/19 07:08:00;;;;;;;7.38;4.45;;;;;;;13.38;100.00;97765.06;5051115;28;20539;-37
2023/07/19 07:10:26;;;;;;;10.80;5.25;;;;;;;13.57;100.00;97793.19;5046506;28;20044;-37
2023/07/19 07:12:52;;;;;;;7.65;4.70;;;;;;;13.56;100.00;97789.75;5069057;28;20058;-38
2023/07/19 07:15:18;;;;;;;6.68;4.53;;;;;;;13.65;100.00;97790.84;5066356;28;20079;-38
2023/07/19 07:17:45;;;;;;;7.03;4.22;;;;;;;13.63;100.00;97790.13;5049835;28;20075;-38
2023/07/19 07:20:10;;;;;;;8.25;4.20;;;;;;;13.69;100.00;97789.66;5064552;28;20072;-37
2023/07/19 07:22:36;;;;;;;8.80;4.35;;;;;;;13.62;100.00;97805.91;5060872;28;20175;-39
2023/07/19 07:25:02;;;;;;;5.03;3.85;;;;;;;13.54;100.00;97781.22;5068003;28;20037;-39
2023/07/19 07:27:29;;;;;;;9.80;4.70;;;;;;;13.65;100.00;97809.13;5077841;28;20044;-38
2023/07/19 07:29:55;;;;;;;9.32;5.35;;;;;;;13.78;100.00;97819.44;5063067;28;20698;-39
2023/07/19 07:32:21;;;;;;;10.35;5.75;;;;;;;13.83;100.00;97814.69;5061552;28;20089;-38
2023/07/19 07:34:47;;;;;;;10.50;5.35;;;;;;;13.81;100.00;97825.28;5065989;28;20032;-38
2023/07/19 07:37:13;;;;;;;8.95;5.65;;;;;;;13.70;100.00;97800.94;5063053;28;20102;-46
2023/07/19 07:39:39;;;;;;;7.30;5.07;;;;;;;13.96;100.00;97826.72;5070332;28;20131;-37
2023/07/19 07:42:05;;;;;;;11.45;7.03;;;;;;;14.02;100.00;97835.03;5068383;28;20040;-37
2023/07/19 07:44:31;;;;;;;7.60;5.47;;;;;;;13.80;100.00;97801.88;5057981;28;20065;-38
2023/07/19 07:46:57;;;;;;;8.98;5.55;;;;;;;14.03;100.00;97832.28;5061303;28;20657;-38
2023/07/19 07:49:23;;;;;;;7.28;5.28;;;;;;;13.99;100.00;97846.53;5066641;28;20075;-37
2023/07/19 07:51:49;;;;;;;10.32;5.40;;;;;;;14.00;100.00;97835.97;5068940;28;20070;-37
2023/07/19 07:54:15;;;;;;;11.07;6.05;;;;;;;14.02;100.00;97832.41;5067728;28;20070;-36
2023/07/19 07:56:41;;;;;;;10.55;5.07;;;;;;;14.11;100.00;97835.13;5068440;28;20036;-37
2023/07/19 07:59:07;;;;;;;8.98;5.57;;;;;;;14.20;100.00;97841.41;5082275;28;20067;-37
2023/07/19 08:01:32;;;;;;;9.07;5.50;;;;;;;14.24;100.00;97845.44;5069188;28;20618;-37
2023/07/19 08:03:59;;;;;;;7.57;4.65;;;;;;;14.26;100.00;97849.63;5049492;28;20048;-38
2023/07/19 08:06:25;;;;;;;7.78;5.32;;;;;;;14.21;100.00;97830.84;5046801;28;20049;-37
2023/07/19 08:08:51;;;;;;;10.35;6.30;;;;;;;14.36;100.00;97852.31;5059916;28;20049;-38
2023/07/19 08:11:17;;;;;;;9.32;5.25;;;;;;;14.40;100.00;97851.16;5050873;28;20042;-37
2023/07/19 08:13:44;;;;;;;7.55;5.18;;;;;;;14.41;100.00;97852.81;5065985;28;20512;-38
2023/07/19 08:16:11;;;;;;;8.88;4.90;;;;;;;14.39;100.00;97858.16;5060570;28;20036;-39
2023/07/19 08:18:36;;;;;;;8.77;5.22;;;;;;;14.33;100.00;97845.56;5066451;28;20117;-38
2023/07/19 08:21:02;;;;;;;9.07;5.53;;;;;;;14.27;100.00;97830.38;5083336;28;20098;-38
2023/07/19 08:23:28;;;;;;;11.35;6.10;;;;;;;14.37;100.00;97859.25;5067926;28;20036;-36
2023/07/19 08:25:56;;;;;;;7.47;5.38;;;;;;;14.51;100.00;97868.63;5066247;28;20123;-38
2023/07/19 08:28:23;;;;;;;9.43;4.60;;;;;;;14.47;100.00;97865.41;5054185;28;20044;-37
2023/07/19 08:30:48;;;;;;;10.75;5.43;;;;;;;14.49;100.00;97868.75;5062944;28;20509;-37
2023/07/19 08:33:14;;;;;;;6.93;4.65;;;;;;;14.61;100.00;97880.84;5067393;28;20130;-37
2023/07/19 08:35:40;;;;;;;5.60;4.20;;;;;;;14.70;100.00;97872.28;5060376;28;20033;-37
2023/07/19 08:38:06;;;;;;;7.55;4.55;;;;;;;14.84;100.00;97874.63;5067434;28;20059;-38
2023/07/19 08:40:37;;;;;;;7.88;5.40;;;;;;;14.87;100.00;97897.06;5067889;28;20040;-38
2023/07/19 08:43:07;;;;;;;5.43;4.10;;;;;;;14.91;100.00;97884.59;5066229;28;20118;-38
2023/07/19 08:45:37;;;;;;;7.38;4.35;;;;;;;14.95;100.00;97891.22;5062182;28;20048;-39
2023/07/19 08:48:07;;;;;;;5.43;3.88;;;;;;;14.90;100.00;97854.97;5062611;28;20062;-38
2023/07/19 08:50:33;;;;;;;5.70;3.65;;;;;;;15.03;100.00;97899.28;5066175;28;20127;-38
2023/07/19 08:53:02;;;;;;;4.07;3.00;;;;;;;15.00;100.00;97899.53;5058374;28;20036;-37
2023/07/19 08:55:31;;;;;;;4.72;3.58;;;;;;;15.19;100.00;97897.91;5064248;28;20139;-38
2023/07/19 08:57:57;;;;;;;6.38;3.03;;;;;;;15.44;100.00;97898.53;5074094;28;20508;-38
2023/07/19 09:00:24;;;;;;;5.82;3.20;;;;;;;15.64;100.00;97905.63;5069639;28;20135;-38
2023/07/19 09:02:50;;;;;;;8.15;3.58;;;;;;;15.69;100.00;97895.59;5044013;28;20044;-38
2023/07/19 09:05:15;;;;;;;4.72;3.10;;;;;;;15.86;100.00;97899.41;5064667;28;20046;-38
2023/07/19 09:07:42;;;;;;;5.32;2.63;;;;;;;16.09;100.00;97906.16;5065548;28;20066;-38
2023/07/19 09:10:09;;;;;;;3.97;3.13;;;;;;;16.42;100.00;97907.69;5059262;28;20040;-38
2023/07/19 09:12:38;;;;;;;3.80;2.85;;;;;;;16.70;100.00;97908.75;5060124;28;20040;-38
2023/07/19 09:15:05;;;;;;;;;;;;;;;16.98;100.00;97905.38;5060435;28;20041;-38
2023/07/19 09:17:35;;;;;;;4.50;2.80;;;;;;;17.20;100.00;97907.75;5065545;28;20152;-39
2023/07/19 09:20:01;;;;;;;4.18;2.38;;;;;;;17.02;100.00;97895.41;5078280;28;20044;-39
2023/07/19 09:22:28;;;;;;;5.30;2.60;;;;;;;16.74;100.00;97905.75;5064477;28;20043;-39
2023/07/19 09:25:01;;;;;;;5.55;2.67;;;;;;;16.90;100.00;97908.66;5060976;28;20079;-39
2023/07/19 09:27:28;;;;;;;3.22;2.33;;;;;;;17.12;100.00;97909.38;5061641;28;20040;-39
2023/07/19 09:29:54;;;;;;;4.80;2.90;;;;;;;17.18;100.00;97921.97;5066156;28;20048;-38
2023/07/19 09:32:20;;;;;;;4.35;2.70;;;;;;;17.40;100.00;97926.97;5057377;28;20052;-38
2023/07/19 09:34:46;;;;;;;4.43;2.42;;;;;;;17.64;100.00;97923.94;5060748;28;20047;-38
2023/07/19 09:37:12;;;;;;;3.60;2.03;;;;;;;17.27;100.00;97879.16;5059622;28;20088;-39
2023/07/19 09:39:40;;;;;;;4.47;2.45;;;;;;;17.56;100.00;97921.16;5066621;28;20082;-38
2023/07/19 09:42:08;;;;;;;4.45;2.10;;;;;;;17.92;100.00;97909.91;5044817;28;20458;-38
2023/07/19 09:44:36;;;;;;;4.97;2.08;;;;;;;18.40;100.00;97930.81;5063764;28;20092;-37
2023/07/19 09:47:02;;;;;;;4.57;2.28;;;;;;;19.33;100.00;97896.34;5064334;28;20051;-39
2023/07/19 09:49:28;;;;;;;1.70;1.55;;;;;;;20.08;100.00;97925.81;5065916;28;20052;-39
2023/07/19 09:51:56;;;;;;;3.88;2.10;;;;;;;19.70;97.35;97925.19;5064971;28;20041;-38
2023/07/19 09:54:24;;;;;;;3.50;1.80;;;;;;;19.81;100.00;97935.50;5063814;28;20041;-39
2023/07/19 09:56:50;;;;;;;3.20;1.70;;;;;;;20.56;95.82;97933.19;5065883;28;20036;-40
2023/07/19 09:59:20;;;;;;;4.95;1.90;;;;;;;20.73;91.95;97934.91;5076767;28;20055;-39
2023/07/19 10:01:46;;;;;;;3.33;2.05;;;;;;;20.63;94.44;97923.63;5063945;28;20047;-39
2023/07/19 10:04:28;;;;;;;2.08;1.58;;;;;;;20.81;90.24;97932.31;5063836;28;20148;-39
2023/07/19 10:07:10;;;;;;;2.63;1.65;;;;;;;21.14;85.23;97931.44;5064098;28;20041;-39
2023/07/19 10:09:44;;;;;;;4.45;1.80;;;;;;;22.52;81.68;97927.94;5065531;28;20045;-38
2023/07/19 10:12:16;;;;;;;1.85;1.50;;;;;;;23.35;72.48;97926.38;5062425;28;20040;-40
2023/07/19 10:15:04;;;;;;;3.67;1.70;;;;;;;23.60;77.23;97924.44;5064677;28;20043;-37
2023/07/19 10:17:39;;;;;;;;;;;;;;;23.09;79.92;97929.38;5064673;28;20052;-38
2023/07/19 10:20:10;;;;;;;1.73;1.40;;;;;;;22.38;84.78;97934.78;5064684;28;19963;-39
2023/07/19 10:22:52;;;;;;;5.13;2.17;;;;;;;21.50;81.82;97925.88;5060021;28;20080;-39
2023/07/19 10:25:29;;;;;;;3.45;2.00;;;;;;;20.98;86.01;97925.28;5050196;28;20471;-39
2023/07/19 10:28:07;;;;;;;2.78;1.48;;;;;;;20.28;86.09;97927.25;5066216;28;20040;-38
2023/07/19 10:30:47;;;;;;;4.15;1.92;;;;;;;19.21;88.97;97954.69;5066890;28;20057;-39
2023/07/19 10:33:24;;;;;;;2.72;1.95;;;;;;;18.77;92.72;97945.78;5066377;28;20059;-39
2023/07/19 10:36:12;;;;;;;4.07;2.20;;;;;;;18.94;96.48;97945.03;5067051;28;20040;-38
2023/07/19 10:38:38;;;;;;;3.13;1.75;;;;;;;20.53;96.32;97942.25;5067717;28;20119;-38
2023/07/19 10:41:05;;;;;;;2.28;1.73;;;;;;;23.49;88.15;97949.56;5064953;28;20145;-39
2023/07/19 10:43:32;;;;;;;2.75;1.60;;;;;;;23.70;81.38;97948.06;5068494;28;20037;-38
2023/07/19 10:45:59;;;;;;;4.95;2.10;;;;;;;23.45;78.84;97942.94;5049702;28;20048;-38
2023/07/19 10:48:29;;;;;;;2.45;1.52;;;;;;;23.33;73.85;97946.97;5063324;28;20084;-39
2023/07/19 10:50:57;;;;;;;2.25;1.25;;;;;;;23.60;66.30;97956.28;5047895;28;20044;-38
2023/07/19 10:53:23;;;;;;;3.22;1.63;;;;;;;25.06;62.60;97953.03;5064887;28;20079;-37
2023/07/19 10:55:53;;;;;;;2.53;1.45;;;;;;;25.14;58.40;97952.06;5051114;28;20056;-38
2023/07/19 10:58:19;;;;;;;2.78;1.40;;;;;;;24.56;62.96;97942.28;5062554;28;20075;-38
2023/07/19 11:00:45;;;;;;;2.40;1.40;;;;;;;23.89;62.40;97963.50;5066617;28;20036;-39
2023/07/19 11:03:15;;;;;;;2.60;1.50;;;;;;;23.19;61.27;97964.44;5065296;28;20068;-39
2023/07/19 11:05:46;;;;;;;1.85;1.20;;;;;;;22.47;63.23;97976.13;5056327;28;20547;-37
2023/07/19 11:08:25;;;;;;;5.15;1.30;;;;;;;22.04;65.24;97965.91;5067515;28;20062;-39
2023/07/19 11:10:52;;;;;;;2.72;1.60;;;;;;;21.47;71.97;97973.81;5065173;28;20048;-39
2023/07/19 11:13:19;;;;;;;4.38;1.83;;;;;;;20.97;71.89;97942.94;5075137;28;21024;-39
2023/07/19 11:15:57;;;;;;;5.55;1.95;;;;;;;21.29;74.58;97965.19;5067734;28;20133;-38
2023/07/19 11:18:30;;;;;;;3.28;1.50;;;;;;;21.58;75.08;97970.00;5062366;28;20048;-38
2023/07/19 11:20:59;;;;;;;4.15;1.73;;;;;;;22.03;76.63;97970.41;5063484;28;20051;-38
2023/07/19 11:23:26;;;;;;;4.57;1.50;;;;;;;22.25;73.58;97963.56;5065659;28;20036;-38
2023/07/19 11:26:03;;;;;;;4.45;1.67;;;;;;;22.25;70.88;97969.69;5034693;28;20237;-39